sensor_id;sensor_type;location;lat;lon;timestamp;P1;durP1;ratioP1;P2;durP2;ratioP2
25549;SDS011;13444;50.562;7.262;2024-03-02T00:00:36;3.00;;;2.00;;
25549;SDS011;13444;50.562;7.262;2024-03-02T00:03:01;4.23;;;2.10;;
25549;SDS011;13444;50.562;7.262;2024-03-02T00:05:27;4.30;;;2.10;;
25549;SDS011;13444;50.562;7.262;2024-03-02T00:07:57;3.33;;;2.60;;
25549;SDS011;13444;50.562;7.262;2024-03-02T00:10:27;2.90;;;2.10;;
25549;SDS011;13444;50.562;7.262;2024-03-02T00:13:04;4.53;;;2.65;;
25549;SDS011;13444;50.562;7.262;2024-03-02T00:15:46;4.35;;;2.50;;
25549;SDS011;13444;50.562;7.262;2024-03-02T00:18:13;2.58;;;2.08;;
25549;SDS011;13444;50.562;7.262;2024-03-02T00:20:41;4.23;;;2.07;;
25549;SDS011;13444;50.562;7.262;2024-03-02T00:23:07;3.53;;;2.03;;
25549;SDS011;13444;50.562;7.262;2024-03-02T00:25:36;3.60;;;2.27;;
25549;SDS011;13444;50.562;7.262;2024-03-02T00:28:11;3.10;;;2.03;;
25549;SDS011;13444;50.562;7.262;2024-03-02T00:33:15;3.50;;;1.73;;
25549;SDS011;13444;50.562;7.262;2024-03-02T00:35:43;4.05;;;2.13;;
25549;SDS011;13444;50.562;7.262;2024-03-02T00:38:09;2.97;;;2.03;;
25549;SDS011;13444;50.562;7.262;2024-03-02T00:40:35;2.72;;;2.03;;
25549;SDS011;13444;50.562;7.262;2024-03-02T00:43:01;3.33;;;1.90;;
25549;SDS011;13444;50.562;7.262;2024-03-02T00:45:27;3.70;;;2.05;;
25549;SDS011;13444;50.562;7.262;2024-03-02T00:47:53;4.03;;;1.85;;
25549;SDS011;13444;50.562;7.262;2024-03-02T00:50:18;4.10;;;2.10;;
25549;SDS011;13444;50.562;7.262;2024-03-02T00:52:44;2.70;;;1.93;;
25549;SDS011;13444;50.562;7.262;2024-03-02T00:55:13;3.22;;;2.00;;
25549;SDS011;13444;50.562;7.262;2024-03-02T00:57:39;2.10;;;1.63;;
25549;SDS011;13444;50.562;7.262;2024-03-02T01:00:05;5.25;;;1.90;;
25549;SDS011;13444;50.562;7.262;2024-03-02T01:02:34;3.13;;;2.38;;
25549;SDS011;13444;50.562;7.262;2024-03-02T01:05:00;3.00;;;1.90;;
25549;SDS011;13444;50.562;7.262;2024-03-02T01:07:26;3.72;;;1.80;;
25549;SDS011;13444;50.562;7.262;2024-03-02T01:09:51;3.45;;;1.80;;
25549;SDS011;13444;50.562;7.262;2024-03-02T01:12:17;3.13;;;1.90;;
25549;SDS011;13444;50.562;7.262;2024-03-02T01:14:42;2.90;;;1.77;;
25549;SDS011;13444;50.562;7.262;2024-03-02T01:17:08;1.80;;;1.60;;
25549;SDS011;13444;50.562;7.262;2024-03-02T01:19:33;3.45;;;1.70;;
25549;SDS011;13444;50.562;7.262;2024-03-02T01:21:59;3.97;;;1.70;;
25549;SDS011;13444;50.562;7.262;2024-03-02T01:24:25;2.65;;;1.90;;
25549;SDS011;13444;50.562;7.262;2024-03-02T01:26:50;1.98;;;1.50;;
25549;SDS011;13444;50.562;7.262;2024-03-02T01:29:16;3.87;;;1.57;;
25549;SDS011;13444;50.562;7.262;2024-03-02T01:31:41;3.53;;;2.10;;
25549;SDS011;13444;50.562;7.262;2024-03-02T01:34:07;3.60;;;2.38;;
25549;SDS011;13444;50.562;7.262;2024-03-02T01:36:33;4.30;;;2.20;;
25549;SDS011;13444;50.562;7.262;2024-03-02T01:38:59;2.97;;;1.97;;
25549;SDS011;13444;50.562;7.262;2024-03-02T01:41:24;8.10;;;2.40;;
25549;SDS011;13444;50.562;7.262;2024-03-02T01:43:50;3.58;;;2.05;;
25549;SDS011;13444;50.562;7.262;2024-03-02T01:46:16;4.23;;;2.10;;
25549;SDS011;13444;50.562;7.262;2024-03-02T01:48:41;3.30;;;1.90;;
25549;SDS011;13444;50.562;7.262;2024-03-02T01:51:07;4.20;;;1.92;;
25549;SDS011;13444;50.562;7.262;2024-03-02T01:53:32;4.97;;;2.17;;
25549;SDS011;13444;50.562;7.262;2024-03-02T01:55:59;2.47;;;1.67;;
25549;SDS011;13444;50.562;7.262;2024-03-02T01:58:26;2.83;;;1.90;;
25549;SDS011;13444;50.562;7.262;2024-03-02T02:00:52;2.78;;;1.67;;
25549;SDS011;13444;50.562;7.262;2024-03-02T02:03:17;2.60;;;1.73;;
25549;SDS011;13444;50.562;7.262;2024-03-02T02:05:43;3.45;;;1.73;;
25549;SDS011;13444;50.562;7.262;2024-03-02T02:08:09;2.33;;;1.63;;
25549;SDS011;13444;50.562;7.262;2024-03-02T02:10:34;3.57;;;2.10;;
25549;SDS011;13444;50.562;7.262;2024-03-02T02:13:00;2.07;;;1.60;;
25549;SDS011;13444;50.562;7.262;2024-03-02T02:15:26;3.08;;;1.83;;
25549;SDS011;13444;50.562;7.262;2024-03-02T02:17:52;2.03;;;1.67;;
25549;SDS011;13444;50.562;7.262;2024-03-02T02:20:18;2.97;;;1.95;;
25549;SDS011;13444;50.562;7.262;2024-03-02T02:23:00;6.03;;;2.37;;
25549;SDS011;13444;50.562;7.262;2024-03-02T02:25:27;2.93;;;2.17;;
25549;SDS011;13444;50.562;7.262;2024-03-02T02:27:54;2.90;;;1.70;;
25549;SDS011;13444;50.562;7.262;2024-03-02T02:30:20;2.53;;;1.60;;
25549;SDS011;13444;50.562;7.262;2024-03-02T02:32:56;4.53;;;1.93;;
25549;SDS011;13444;50.562;7.262;2024-03-02T02:35:22;3.78;;;1.85;;
25549;SDS011;13444;50.562;7.262;2024-03-02T02:37:51;2.80;;;1.90;;
25549;SDS011;13444;50.562;7.262;2024-03-02T02:40:19;2.70;;;1.83;;
25549;SDS011;13444;50.562;7.262;2024-03-02T02:42:44;3.27;;;2.07;;
25549;SDS011;13444;50.562;7.262;2024-03-02T02:45:10;4.87;;;2.07;;
25549;SDS011;13444;50.562;7.262;2024-03-02T02:47:38;4.28;;;1.95;;
25549;SDS011;13444;50.562;7.262;2024-03-02T02:50:03;4.13;;;2.10;;
25549;SDS011;13444;50.562;7.262;2024-03-02T02:52:32;3.47;;;2.03;;
25549;SDS011;13444;50.562;7.262;2024-03-02T02:55:03;7.50;;;2.27;;
25549;SDS011;13444;50.562;7.262;2024-03-02T02:57:29;3.93;;;2.33;;
25549;SDS011;13444;50.562;7.262;2024-03-02T02:59:56;3.93;;;2.43;;
25549;SDS011;13444;50.562;7.262;2024-03-02T03:02:23;3.10;;;1.90;;
25549;SDS011;13444;50.562;7.262;2024-03-02T03:04:48;3.57;;;1.93;;
25549;SDS011;13444;50.562;7.262;2024-03-02T03:07:14;2.53;;;1.87;;
25549;SDS011;13444;50.562;7.262;2024-03-02T03:09:39;2.80;;;2.07;;
25549;SDS011;13444;50.562;7.262;2024-03-02T03:12:05;3.20;;;2.00;;
25549;SDS011;13444;50.562;7.262;2024-03-02T03:14:30;6.07;;;2.00;;
25549;SDS011;13444;50.562;7.262;2024-03-02T03:16:56;4.20;;;1.90;;
25549;SDS011;13444;50.562;7.262;2024-03-02T03:19:21;9.40;;;2.43;;
25549;SDS011;13444;50.562;7.262;2024-03-02T03:21:47;2.57;;;1.73;;
25549;SDS011;13444;50.562;7.262;2024-03-02T03:24:12;2.97;;;2.20;;
25549;SDS011;13444;50.562;7.262;2024-03-02T03:26:38;4.17;;;1.87;;
25549;SDS011;13444;50.562;7.262;2024-03-02T03:29:03;2.43;;;1.73;;
25549;SDS011;13444;50.562;7.262;2024-03-02T03:31:29;3.70;;;1.70;;
25549;SDS011;13444;50.562;7.262;2024-03-02T03:33:54;2.43;;;1.83;;
25549;SDS011;13444;50.562;7.262;2024-03-02T03:36:20;3.20;;;1.87;;
25549;SDS011;13444;50.562;7.262;2024-03-02T03:38:45;4.03;;;2.00;;
25549;SDS011;13444;50.562;7.262;2024-03-02T03:41:11;3.53;;;2.00;;
25549;SDS011;13444;50.562;7.262;2024-03-02T03:43:36;3.83;;;1.90;;
25549;SDS011;13444;50.562;7.262;2024-03-02T03:46:02;2.50;;;1.80;;
25549;SDS011;13444;50.562;7.262;2024-03-02T03:48:28;4.40;;;2.00;;
25549;SDS011;13444;50.562;7.262;2024-03-02T03:50:55;5.37;;;2.23;;
25549;SDS011;13444;50.562;7.262;2024-03-02T03:53:21;2.40;;;2.13;;
25549;SDS011;13444;50.562;7.262;2024-03-02T03:55:47;2.30;;;1.80;;
25549;SDS011;13444;50.562;7.262;2024-03-02T03:58:14;4.00;;;2.70;;
25549;SDS011;13444;50.562;7.262;2024-03-02T04:00:41;6.00;;;2.20;;
25549;SDS011;13444;50.562;7.262;2024-03-02T04:03:07;3.23;;;2.10;;
25549;SDS011;13444;50.562;7.262;2024-03-02T04:05:32;4.63;;;2.40;;
25549;SDS011;13444;50.562;7.262;2024-03-02T04:07:58;6.17;;;2.73;;
25549;SDS011;13444;50.562;7.262;2024-03-02T04:10:23;4.50;;;2.40;;
25549;SDS011;13444;50.562;7.262;2024-03-02T04:12:49;10.03;;;3.50;;
25549;SDS011;13444;50.562;7.262;2024-03-02T04:15:15;5.77;;;3.10;;
25549;SDS011;13444;50.562;7.262;2024-03-02T04:17:41;5.40;;;3.07;;
25549;SDS011;13444;50.562;7.262;2024-03-02T04:20:06;8.13;;;3.63;;
25549;SDS011;13444;50.562;7.262;2024-03-02T04:22:32;6.23;;;3.37;;
25549;SDS011;13444;50.562;7.262;2024-03-02T04:24:59;9.10;;;3.50;;
25549;SDS011;13444;50.562;7.262;2024-03-02T04:27:25;7.57;;;3.90;;
25549;SDS011;13444;50.562;7.262;2024-03-02T04:29:51;5.83;;;3.63;;
25549;SDS011;13444;50.562;7.262;2024-03-02T04:32:16;5.07;;;3.23;;
25549;SDS011;13444;50.562;7.262;2024-03-02T04:34:42;8.00;;;3.03;;
25549;SDS011;13444;50.562;7.262;2024-03-02T04:37:08;3.97;;;2.97;;
25549;SDS011;13444;50.562;7.262;2024-03-02T04:39:34;6.03;;;3.53;;
25549;SDS011;13444;50.562;7.262;2024-03-02T04:42:00;5.50;;;3.60;;
25549;SDS011;13444;50.562;7.262;2024-03-02T04:44:26;4.93;;;3.50;;
25549;SDS011;13444;50.562;7.262;2024-03-02T04:46:51;6.60;;;3.60;;
25549;SDS011;13444;50.562;7.262;2024-03-02T04:49:17;10.83;;;3.40;;
25549;SDS011;13444;50.562;7.262;2024-03-02T04:51:42;6.23;;;3.23;;
25549;SDS011;13444;50.562;7.262;2024-03-02T04:54:08;6.23;;;3.20;;
25549;SDS011;13444;50.562;7.262;2024-03-02T04:56:33;6.70;;;3.63;;
25549;SDS011;13444;50.562;7.262;2024-03-02T04:59:04;5.87;;;3.73;;
25549;SDS011;13444;50.562;7.262;2024-03-02T05:01:31;5.17;;;3.57;;
25549;SDS011;13444;50.562;7.262;2024-03-02T05:03:56;6.10;;;3.80;;
25549;SDS011;13444;50.562;7.262;2024-03-02T05:06:22;5.33;;;4.17;;
25549;SDS011;13444;50.562;7.262;2024-03-02T05:08:48;5.37;;;3.27;;
25549;SDS011;13444;50.562;7.262;2024-03-02T05:11:14;7.23;;;3.60;;
25549;SDS011;13444;50.562;7.262;2024-03-02T05:13:56;8.67;;;4.57;;
25549;SDS011;13444;50.562;7.262;2024-03-02T05:16:21;6.90;;;3.67;;
25549;SDS011;13444;50.562;7.262;2024-03-02T05:18:47;7.47;;;4.50;;
25549;SDS011;13444;50.562;7.262;2024-03-02T05:21:12;4.40;;;3.73;;
25549;SDS011;13444;50.562;7.262;2024-03-02T05:23:38;4.67;;;3.40;;
25549;SDS011;13444;50.562;7.262;2024-03-02T05:26:04;5.47;;;3.93;;
25549;SDS011;13444;50.562;7.262;2024-03-02T05:28:29;5.67;;;4.17;;
25549;SDS011;13444;50.562;7.262;2024-03-02T05:30:55;6.23;;;4.00;;
25549;SDS011;13444;50.562;7.262;2024-03-02T05:33:21;6.27;;;4.30;;
25549;SDS011;13444;50.562;7.262;2024-03-02T05:35:47;7.10;;;4.00;;
25549;SDS011;13444;50.562;7.262;2024-03-02T05:38:15;5.33;;;3.80;;
25549;SDS011;13444;50.562;7.262;2024-03-02T05:40:40;8.83;;;3.80;;
25549;SDS011;13444;50.562;7.262;2024-03-02T05:43:06;7.67;;;4.13;;
25549;SDS011;13444;50.562;7.262;2024-03-02T05:45:31;4.93;;;4.03;;
25549;SDS011;13444;50.562;7.262;2024-03-02T05:47:57;6.67;;;4.27;;
25549;SDS011;13444;50.562;7.262;2024-03-02T05:50:23;6.70;;;4.57;;
25549;SDS011;13444;50.562;7.262;2024-03-02T05:52:48;10.57;;;4.40;;
25549;SDS011;13444;50.562;7.262;2024-03-02T05:55:14;6.63;;;4.10;;
25549;SDS011;13444;50.562;7.262;2024-03-02T05:57:40;9.03;;;3.57;;
25549;SDS011;13444;50.562;7.262;2024-03-02T06:00:08;8.00;;;3.83;;
25549;SDS011;13444;50.562;7.262;2024-03-02T06:02:34;8.77;;;4.00;;
25549;SDS011;13444;50.562;7.262;2024-03-02T06:05:00;7.20;;;3.87;;
25549;SDS011;13444;50.562;7.262;2024-03-02T06:07:25;7.43;;;3.90;;
25549;SDS011;13444;50.562;7.262;2024-03-02T06:09:51;9.07;;;4.40;;
25549;SDS011;13444;50.562;7.262;2024-03-02T06:12:17;7.83;;;4.70;;
25549;SDS011;13444;50.562;7.262;2024-03-02T06:14:43;6.30;;;4.37;;
25549;SDS011;13444;50.562;7.262;2024-03-02T06:17:09;9.43;;;4.23;;
25549;SDS011;13444;50.562;7.262;2024-03-02T06:19:34;6.77;;;4.50;;
25549;SDS011;13444;50.562;7.262;2024-03-02T06:22:00;7.50;;;4.20;;
25549;SDS011;13444;50.562;7.262;2024-03-02T06:24:25;6.10;;;4.17;;
25549;SDS011;13444;50.562;7.262;2024-03-02T06:26:51;6.90;;;4.50;;
25549;SDS011;13444;50.562;7.262;2024-03-02T06:29:17;8.30;;;4.87;;
25549;SDS011;13444;50.562;7.262;2024-03-02T06:31:42;6.03;;;3.80;;
25549;SDS011;13444;50.562;7.262;2024-03-02T06:34:08;7.63;;;4.27;;
25549;SDS011;13444;50.562;7.262;2024-03-02T06:36:33;5.43;;;3.57;;
25549;SDS011;13444;50.562;7.262;2024-03-02T06:38:59;5.80;;;3.90;;
25549;SDS011;13444;50.562;7.262;2024-03-02T06:41:24;6.23;;;3.10;;
25549;SDS011;13444;50.562;7.262;2024-03-02T06:43:51;7.47;;;3.87;;
25549;SDS011;13444;50.562;7.262;2024-03-02T06:46:24;4.30;;;3.30;;
25549;SDS011;13444;50.562;7.262;2024-03-02T06:48:50;6.80;;;3.67;;
25549;SDS011;13444;50.562;7.262;2024-03-02T06:51:15;5.67;;;4.00;;
25549;SDS011;13444;50.562;7.262;2024-03-02T06:53:41;7.00;;;4.53;;
25549;SDS011;13444;50.562;7.262;2024-03-02T06:56:07;4.60;;;3.60;;
25549;SDS011;13444;50.562;7.262;2024-03-02T06:58:33;8.07;;;4.47;;
25549;SDS011;13444;50.562;7.262;2024-03-02T07:00:58;7.30;;;4.40;;
25549;SDS011;13444;50.562;7.262;2024-03-02T07:03:25;10.77;;;4.20;;
25549;SDS011;13444;50.562;7.262;2024-03-02T07:05:51;10.47;;;5.00;;
25549;SDS011;13444;50.562;7.262;2024-03-02T07:08:16;7.53;;;4.30;;
25549;SDS011;13444;50.562;7.262;2024-03-02T07:10:42;6.60;;;4.90;;
25549;SDS011;13444;50.562;7.262;2024-03-02T07:13:07;8.50;;;4.63;;
25549;SDS011;13444;50.562;7.262;2024-03-02T07:15:33;7.23;;;4.47;;
25549;SDS011;13444;50.562;7.262;2024-03-02T07:18:19;12.03;;;4.47;;
25549;SDS011;13444;50.562;7.262;2024-03-02T07:20:45;6.77;;;4.43;;
25549;SDS011;13444;50.562;7.262;2024-03-02T07:23:10;7.23;;;4.83;;
25549;SDS011;13444;50.562;7.262;2024-03-02T07:25:36;9.77;;;4.93;;
25549;SDS011;13444;50.562;7.262;2024-03-02T07:28:01;8.73;;;4.70;;
25549;SDS011;13444;50.562;7.262;2024-03-02T07:30:27;9.13;;;5.23;;
25549;SDS011;13444;50.562;7.262;2024-03-02T07:32:53;8.57;;;5.77;;
25549;SDS011;13444;50.562;7.262;2024-03-02T07:35:18;7.43;;;5.17;;
25549;SDS011;13444;50.562;7.262;2024-03-02T07:37:44;11.17;;;5.00;;
25549;SDS011;13444;50.562;7.262;2024-03-02T07:40:10;8.40;;;4.67;;
25549;SDS011;13444;50.562;7.262;2024-03-02T07:42:37;7.30;;;5.13;;
25549;SDS011;13444;50.562;7.262;2024-03-02T07:45:04;7.67;;;4.97;;
25549;SDS011;13444;50.562;7.262;2024-03-02T07:47:30;9.17;;;4.90;;
25549;SDS011;13444;50.562;7.262;2024-03-02T07:49:55;7.30;;;5.80;;
25549;SDS011;13444;50.562;7.262;2024-03-02T07:52:21;9.73;;;6.93;;
25549;SDS011;13444;50.562;7.262;2024-03-02T07:54:46;7.95;;;5.53;;
25549;SDS011;13444;50.562;7.262;2024-03-02T07:57:12;9.30;;;5.70;;
25549;SDS011;13444;50.562;7.262;2024-03-02T07:59:37;9.65;;;6.38;;
25549;SDS011;13444;50.562;7.262;2024-03-02T08:02:03;10.90;;;7.18;;
25549;SDS011;13444;50.562;7.262;2024-03-02T08:04:29;11.80;;;6.73;;
25549;SDS011;13444;50.562;7.262;2024-03-02T08:06:54;8.30;;;5.28;;
25549;SDS011;13444;50.562;7.262;2024-03-02T08:09:20;7.13;;;3.97;;
25549;SDS011;13444;50.562;7.262;2024-03-02T08:11:45;7.70;;;4.43;;
25549;SDS011;13444;50.562;7.262;2024-03-02T08:14:11;8.00;;;3.80;;
25549;SDS011;13444;50.562;7.262;2024-03-02T08:16:36;6.33;;;3.80;;
25549;SDS011;13444;50.562;7.262;2024-03-02T08:19:02;8.87;;;4.60;;
25549;SDS011;13444;50.562;7.262;2024-03-02T08:21:28;9.10;;;6.07;;
25549;SDS011;13444;50.562;7.262;2024-03-02T08:23:57;8.95;;;4.30;;
25549;SDS011;13444;50.562;7.262;2024-03-02T08:26:23;7.70;;;4.93;;
25549;SDS011;13444;50.562;7.262;2024-03-02T08:28:49;10.98;;;5.20;;
25549;SDS011;13444;50.562;7.262;2024-03-02T08:31:14;6.63;;;3.53;;
25549;SDS011;13444;50.562;7.262;2024-03-02T08:33:40;7.28;;;3.00;;
25549;SDS011;13444;50.562;7.262;2024-03-02T08:36:05;3.97;;;2.95;;
25549;SDS011;13444;50.562;7.262;2024-03-02T08:38:31;4.85;;;2.75;;
25549;SDS011;13444;50.562;7.262;2024-03-02T08:40:57;4.30;;;2.13;;
25549;SDS011;13444;50.562;7.262;2024-03-02T08:43:23;3.83;;;2.47;;
25549;SDS011;13444;50.562;7.262;2024-03-02T08:45:49;4.97;;;2.53;;
25549;SDS011;13444;50.562;7.262;2024-03-02T08:48:15;5.03;;;2.55;;
25549;SDS011;13444;50.562;7.262;2024-03-02T08:50:41;4.50;;;2.75;;
25549;SDS011;13444;50.562;7.262;2024-03-02T08:53:06;6.10;;;2.65;;
25549;SDS011;13444;50.562;7.262;2024-03-02T08:55:32;6.28;;;2.63;;
25549;SDS011;13444;50.562;7.262;2024-03-02T08:57:57;4.63;;;2.20;;
25549;SDS011;13444;50.562;7.262;2024-03-02T09:00:23;7.20;;;3.15;;
25549;SDS011;13444;50.562;7.262;2024-03-02T09:02:49;3.78;;;2.28;;
25549;SDS011;13444;50.562;7.262;2024-03-02T09:05:15;3.47;;;2.20;;
25549;SDS011;13444;50.562;7.262;2024-03-02T09:07:41;2.95;;;2.13;;
25549;SDS011;13444;50.562;7.262;2024-03-02T09:10:06;3.83;;;2.13;;
25549;SDS011;13444;50.562;7.262;2024-03-02T09:12:33;4.32;;;2.60;;
25549;SDS011;13444;50.562;7.262;2024-03-02T09:14:59;5.28;;;2.25;;
25549;SDS011;13444;50.562;7.262;2024-03-02T09:17:26;5.20;;;2.28;;
25549;SDS011;13444;50.562;7.262;2024-03-02T09:19:51;2.97;;;2.20;;
25549;SDS011;13444;50.562;7.262;2024-03-02T09:22:19;5.25;;;2.40;;
25549;SDS011;13444;50.562;7.262;2024-03-02T09:24:45;4.30;;;2.17;;
25549;SDS011;13444;50.562;7.262;2024-03-02T09:27:11;4.90;;;2.40;;
25549;SDS011;13444;50.562;7.262;2024-03-02T09:29:37;3.95;;;2.45;;
25549;SDS011;13444;50.562;7.262;2024-03-02T09:32:03;2.58;;;1.83;;
25549;SDS011;13444;50.562;7.262;2024-03-02T09:34:30;3.97;;;2.28;;
25549;SDS011;13444;50.562;7.262;2024-03-02T09:36:56;2.65;;;2.17;;
25549;SDS011;13444;50.562;7.262;2024-03-02T09:39:22;2.78;;;2.00;;
25549;SDS011;13444;50.562;7.262;2024-03-02T09:41:48;3.83;;;2.22;;
25549;SDS011;13444;50.562;7.262;2024-03-02T09:44:13;6.60;;;2.10;;
25549;SDS011;13444;50.562;7.262;2024-03-02T09:46:39;3.40;;;2.40;;
25549;SDS011;13444;50.562;7.262;2024-03-02T09:49:05;4.70;;;2.10;;
25549;SDS011;13444;50.562;7.262;2024-03-02T09:51:31;3.30;;;2.28;;
25549;SDS011;13444;50.562;7.262;2024-03-02T09:53:57;3.90;;;2.13;;
25549;SDS011;13444;50.562;7.262;2024-03-02T09:56:22;2.95;;;2.35;;
25549;SDS011;13444;50.562;7.262;2024-03-02T09:58:48;4.88;;;2.75;;
25549;SDS011;13444;50.562;7.262;2024-03-02T10:01:13;4.90;;;2.53;;
25549;SDS011;13444;50.562;7.262;2024-03-02T10:03:39;4.57;;;2.70;;
25549;SDS011;13444;50.562;7.262;2024-03-02T10:06:20;3.97;;;2.30;;
25549;SDS011;13444;50.562;7.262;2024-03-02T10:08:50;3.72;;;2.65;;
25549;SDS011;13444;50.562;7.262;2024-03-02T10:11:29;3.15;;;2.60;;
25549;SDS011;13444;50.562;7.262;2024-03-02T10:14:12;4.07;;;2.40;;
25549;SDS011;13444;50.562;7.262;2024-03-02T10:16:42;6.25;;;2.50;;
25549;SDS011;13444;50.562;7.262;2024-03-02T10:21:47;2.80;;;2.33;;
25549;SDS011;13444;50.562;7.262;2024-03-02T10:24:17;2.72;;;2.20;;
25549;SDS011;13444;50.562;7.262;2024-03-02T10:26:46;5.50;;;2.25;;
25549;SDS011;13444;50.562;7.262;2024-03-02T10:29:13;7.68;;;2.70;;
25549;SDS011;13444;50.562;7.262;2024-03-02T10:31:39;4.72;;;2.55;;
25549;SDS011;13444;50.562;7.262;2024-03-02T10:34:06;4.03;;;2.03;;
25549;SDS011;13444;50.562;7.262;2024-03-02T10:36:36;3.47;;;2.10;;
25549;SDS011;13444;50.562;7.262;2024-03-02T10:39:02;2.60;;;1.70;;
25549;SDS011;13444;50.562;7.262;2024-03-02T10:41:29;3.15;;;1.63;;
25549;SDS011;13444;50.562;7.262;2024-03-02T10:43:58;2.47;;;1.70;;
25549;SDS011;13444;50.562;7.262;2024-03-02T10:46:28;4.57;;;1.63;;
25549;SDS011;13444;50.562;7.262;2024-03-02T10:48:55;5.05;;;1.92;;
25549;SDS011;13444;50.562;7.262;2024-03-02T10:51:23;3.78;;;1.60;;
25549;SDS011;13444;50.562;7.262;2024-03-02T10:53:50;5.95;;;1.48;;
25549;SDS011;13444;50.562;7.262;2024-03-02T10:56:22;2.65;;;1.50;;
25549;SDS011;13444;50.562;7.262;2024-03-02T10:58:55;4.00;;;1.50;;
25549;SDS011;13444;50.562;7.262;2024-03-02T11:01:29;1.63;;;1.10;;
25549;SDS011;13444;50.562;7.262;2024-03-02T11:03:56;2.05;;;1.33;;
25549;SDS011;13444;50.562;7.262;2024-03-02T11:06:23;4.38;;;1.20;;
25549;SDS011;13444;50.562;7.262;2024-03-02T11:08:51;2.40;;;1.30;;
25549;SDS011;13444;50.562;7.262;2024-03-02T11:11:21;1.38;;;0.90;;
25549;SDS011;13444;50.562;7.262;2024-03-02T11:13:56;1.17;;;1.00;;
25549;SDS011;13444;50.562;7.262;2024-03-02T11:16:33;4.00;;;1.98;;
25549;SDS011;13444;50.562;7.262;2024-03-02T11:19:05;2.65;;;1.35;;
25549;SDS011;13444;50.562;7.262;2024-03-02T11:21:35;4.68;;;1.58;;
25549;SDS011;13444;50.562;7.262;2024-03-02T11:26:46;3.88;;;1.65;;
25549;SDS011;13444;50.562;7.262;2024-03-02T11:29:42;4.05;;;1.50;;
25549;SDS011;13444;50.562;7.262;2024-03-02T11:32:06;3.35;;;1.60;;
25549;SDS011;13444;50.562;7.262;2024-03-02T11:34:38;2.42;;;1.58;;
25549;SDS011;13444;50.562;7.262;2024-03-02T11:37:10;3.67;;;1.70;;
25549;SDS011;13444;50.562;7.262;2024-03-02T11:39:37;1.50;;;1.40;;
25549;SDS011;13444;50.562;7.262;2024-03-02T11:42:07;3.13;;;1.58;;
25549;SDS011;13444;50.562;7.262;2024-03-02T11:44:36;1.88;;;1.33;;
25549;SDS011;13444;50.562;7.262;2024-03-02T11:47:05;2.40;;;1.38;;
25549;SDS011;13444;50.562;7.262;2024-03-02T11:49:42;2.83;;;1.30;;
25549;SDS011;13444;50.562;7.262;2024-03-02T11:52:10;3.30;;;1.30;;
25549;SDS011;13444;50.562;7.262;2024-03-02T11:54:37;2.42;;;1.10;;
25549;SDS011;13444;50.562;7.262;2024-03-02T11:57:11;2.60;;;1.30;;
25549;SDS011;13444;50.562;7.262;2024-03-02T11:59:39;3.03;;;1.42;;
25549;SDS011;13444;50.562;7.262;2024-03-02T12:02:05;1.48;;;1.27;;
25549;SDS011;13444;50.562;7.262;2024-03-02T12:04:31;2.08;;;1.20;;
25549;SDS011;13444;50.562;7.262;2024-03-02T12:06:58;2.13;;;1.42;;
25549;SDS011;13444;50.562;7.262;2024-03-02T12:09:25;5.50;;;1.45;;
25549;SDS011;13444;50.562;7.262;2024-03-02T12:12:01;2.45;;;1.70;;
25549;SDS011;13444;50.562;7.262;2024-03-02T12:14:31;4.35;;;2.05;;
25549;SDS011;13444;50.562;7.262;2024-03-02T12:16:57;2.22;;;1.52;;
25549;SDS011;13444;50.562;7.262;2024-03-02T12:19:23;2.47;;;1.40;;
25549;SDS011;13444;50.562;7.262;2024-03-02T12:21:50;2.85;;;1.38;;
25549;SDS011;13444;50.562;7.262;2024-03-02T12:24:16;2.83;;;1.42;;
25549;SDS011;13444;50.562;7.262;2024-03-02T12:26:41;2.15;;;1.10;;
25549;SDS011;13444;50.562;7.262;2024-03-02T12:29:07;3.47;;;1.38;;
25549;SDS011;13444;50.562;7.262;2024-03-02T12:31:33;2.92;;;1.23;;
25549;SDS011;13444;50.562;7.262;2024-03-02T12:34:00;2.55;;;1.30;;
25549;SDS011;13444;50.562;7.262;2024-03-02T12:36:26;2.03;;;1.02;;
25549;SDS011;13444;50.562;7.262;2024-03-02T12:38:52;2.08;;;1.15;;
25549;SDS011;13444;50.562;7.262;2024-03-02T12:41:18;1.63;;;1.25;;
25549;SDS011;13444;50.562;7.262;2024-03-02T12:43:43;3.03;;;1.00;;
25549;SDS011;13444;50.562;7.262;2024-03-02T12:46:10;5.32;;;1.50;;
25549;SDS011;13444;50.562;7.262;2024-03-02T12:48:36;3.83;;;1.48;;
25549;SDS011;13444;50.562;7.262;2024-03-02T12:51:02;1.83;;;1.35;;
25549;SDS011;13444;50.562;7.262;2024-03-02T12:53:28;1.88;;;1.35;;
25549;SDS011;13444;50.562;7.262;2024-03-02T12:55:53;3.05;;;1.17;;
25549;SDS011;13444;50.562;7.262;2024-03-02T12:58:21;3.22;;;1.15;;
25549;SDS011;13444;50.562;7.262;2024-03-02T13:00:47;3.00;;;1.10;;
25549;SDS011;13444;50.562;7.262;2024-03-02T13:03:13;3.15;;;1.25;;
25549;SDS011;13444;50.562;7.262;2024-03-02T13:05:39;2.00;;;1.20;;
25549;SDS011;13444;50.562;7.262;2024-03-02T13:08:05;1.65;;;1.20;;
25549;SDS011;13444;50.562;7.262;2024-03-02T13:10:32;2.60;;;1.20;;
25549;SDS011;13444;50.562;7.262;2024-03-02T13:12:58;3.83;;;1.38;;
25549;SDS011;13444;50.562;7.262;2024-03-02T13:15:26;2.10;;;1.13;;
25549;SDS011;13444;50.562;7.262;2024-03-02T13:17:52;2.95;;;1.30;;
25549;SDS011;13444;50.562;7.262;2024-03-02T13:20:17;1.77;;;1.48;;
25549;SDS011;13444;50.562;7.262;2024-03-02T13:22:44;1.60;;;1.20;;
25549;SDS011;13444;50.562;7.262;2024-03-02T13:25:09;1.92;;;1.58;;
25549;SDS011;13444;50.562;7.262;2024-03-02T13:27:35;3.05;;;1.27;;
25549;SDS011;13444;50.562;7.262;2024-03-02T13:30:01;1.92;;;1.50;;
25549;SDS011;13444;50.562;7.262;2024-03-02T13:32:30;1.30;;;1.00;;
25549;SDS011;13444;50.562;7.262;2024-03-02T13:34:56;1.88;;;1.13;;
25549;SDS011;13444;50.562;7.262;2024-03-02T13:37:21;2.55;;;1.33;;
25549;SDS011;13444;50.562;7.262;2024-03-02T13:39:47;2.00;;;1.10;;
25549;SDS011;13444;50.562;7.262;2024-03-02T13:42:13;1.10;;;1.00;;
25549;SDS011;13444;50.562;7.262;2024-03-02T13:44:40;1.77;;;1.08;;
25549;SDS011;13444;50.562;7.262;2024-03-02T13:47:09;1.20;;;1.10;;
25549;SDS011;13444;50.562;7.262;2024-03-02T13:49:34;1.38;;;1.20;;
25549;SDS011;13444;50.562;7.262;2024-03-02T13:52:04;1.33;;;1.17;;
25549;SDS011;13444;50.562;7.262;2024-03-02T13:54:38;2.53;;;1.35;;
25549;SDS011;13444;50.562;7.262;2024-03-02T13:57:04;1.90;;;1.40;;
25549;SDS011;13444;50.562;7.262;2024-03-02T13:59:30;3.65;;;1.38;;
25549;SDS011;13444;50.562;7.262;2024-03-02T14:01:56;3.45;;;2.00;;
25549;SDS011;13444;50.562;7.262;2024-03-02T14:04:21;1.73;;;1.20;;
25549;SDS011;13444;50.562;7.262;2024-03-02T14:06:47;4.28;;;1.58;;
25549;SDS011;13444;50.562;7.262;2024-03-02T14:09:13;3.25;;;1.35;;
25549;SDS011;13444;50.562;7.262;2024-03-02T14:11:38;3.60;;;1.50;;
25549;SDS011;13444;50.562;7.262;2024-03-02T14:14:04;1.88;;;1.30;;
25549;SDS011;13444;50.562;7.262;2024-03-02T14:16:29;2.90;;;1.40;;
25549;SDS011;13444;50.562;7.262;2024-03-02T14:18:55;2.50;;;1.65;;
25549;SDS011;13444;50.562;7.262;2024-03-02T14:21:21;3.45;;;1.52;;
25549;SDS011;13444;50.562;7.262;2024-03-02T14:23:46;1.55;;;1.17;;
25549;SDS011;13444;50.562;7.262;2024-03-02T14:26:12;1.92;;;1.35;;
25549;SDS011;13444;50.562;7.262;2024-03-02T14:28:37;1.65;;;1.10;;
25549;SDS011;13444;50.562;7.262;2024-03-02T14:31:03;2.00;;;1.25;;
25549;SDS011;13444;50.562;7.262;2024-03-02T14:33:29;1.55;;;1.30;;
25549;SDS011;13444;50.562;7.262;2024-03-02T14:35:54;1.33;;;1.10;;
25549;SDS011;13444;50.562;7.262;2024-03-02T14:38:20;1.27;;;1.02;;
25549;SDS011;13444;50.562;7.262;2024-03-02T14:40:45;1.75;;;1.20;;
25549;SDS011;13444;50.562;7.262;2024-03-02T14:43:11;2.58;;;1.50;;
25549;SDS011;13444;50.562;7.262;2024-03-02T14:45:36;2.50;;;1.33;;
25549;SDS011;13444;50.562;7.262;2024-03-02T14:48:02;2.53;;;1.30;;
25549;SDS011;13444;50.562;7.262;2024-03-02T14:50:28;1.55;;;1.33;;
25549;SDS011;13444;50.562;7.262;2024-03-02T14:52:54;2.08;;;1.05;;